createdAt,value
2023-02-18T00:00:05.761Z,5.98
2023-02-18T00:05:30.083Z,5.97
2023-02-18T00:10:33.096Z,5.99
2023-02-18T00:15:37.411Z,6.02
2023-02-18T00:20:40.834Z,6.07
2023-02-18T00:25:44.150Z,6.13
2023-02-18T00:30:47.301Z,6.21
2023-02-18T00:35:50.462Z,6.30
2023-02-18T00:40:53.465Z,6.37
2023-02-18T00:45:56.568Z,6.41
2023-02-18T00:51:01.166Z,6.50
2023-02-18T00:56:06.272Z,6.55
2023-02-18T01:01:11.212Z,6.58
2023-02-18T01:06:14.734Z,6.62
2023-02-18T01:11:18.352Z,6.63
2023-02-18T01:16:21.677Z,6.60
2023-02-18T01:21:25.283Z,6.61
2023-02-18T01:26:28.383Z,6.61
2023-02-18T01:31:31.549Z,6.57
2023-02-18T01:36:35.111Z,6.56
2023-02-18T01:41:38.211Z,6.56
2023-02-18T01:46:41.281Z,6.54
2023-02-18T01:51:46.877Z,6.52
2023-02-18T01:57:02.089Z,6.52
2023-02-18T02:02:08.920Z,6.50
2023-02-18T02:07:12.371Z,6.48
2023-02-18T02:12:44.778Z,6.47
2023-02-18T02:18:16.135Z,6.46
2023-02-18T02:23:28.659Z,6.48
2023-02-18T02:28:42.108Z,6.47
2023-02-18T02:34:00.266Z,6.42
2023-02-18T02:39:27.231Z,6.41
2023-02-18T02:44:40.168Z,6.42
2023-02-18T02:50:00.896Z,6.40
2023-02-18T02:55:09.115Z,6.40
2023-02-18T03:00:16.151Z,6.41
2023-02-18T03:05:50.451Z,6.40
2023-02-18T03:11:14.758Z,6.35
2023-02-18T03:16:49.765Z,6.33
2023-02-18T03:22:07.250Z,6.31
2023-02-18T03:27:14.247Z,6.29
2023-02-18T03:32:21.602Z,6.28
2023-02-18T03:37:24.758Z,6.28
2023-02-18T03:42:29.690Z,6.26
2023-02-18T03:47:33.587Z,6.24
2023-02-18T03:52:37.150Z,6.22
2023-02-18T03:57:40.253Z,6.20
2023-02-18T04:02:43.462Z,6.20
2023-02-18T04:07:46.764Z,6.18
2023-02-18T04:12:49.670Z,6.15
2023-02-18T04:17:52.876Z,6.11
2023-02-18T04:22:55.978Z,6.10
2023-02-18T04:27:59.608Z,6.08
2023-02-18T04:33:02.608Z,6.07
2023-02-18T04:38:05.707Z,6.05
2023-02-18T04:43:08.916Z,6.01
2023-02-18T04:48:11.924Z,5.98
2023-02-18T04:53:15.025Z,5.95
2023-02-18T04:58:19.573Z,5.93
2023-02-18T05:03:22.670Z,5.91
2023-02-18T05:08:26.089Z,5.87
2023-02-18T05:13:29.089Z,5.84
2023-02-18T05:18:32.201Z,5.81
2023-02-18T05:23:35.407Z,5.76
2023-02-18T05:28:39.021Z,5.71
2023-02-18T05:33:42.947Z,5.68
2023-02-18T05:38:45.951Z,5.64
2023-02-18T05:44:07.998Z,5.62
2023-02-18T05:49:11.724Z,5.63
2023-02-18T05:54:14.821Z,5.63
2023-02-18T05:59:18.821Z,5.63
2023-02-18T06:04:22.057Z,5.61
2023-02-18T06:09:25.576Z,5.61
2023-02-18T06:14:28.782Z,5.61
2023-02-18T06:19:32.807Z,5.63
2023-02-18T06:24:35.821Z,5.63
2023-02-18T06:29:38.917Z,5.64
2023-02-18T06:34:42.122Z,5.65
2023-02-18T06:39:45.126Z,5.68
2023-02-18T06:44:48.131Z,5.71
2023-02-18T06:49:51.333Z,5.79
2023-02-18T06:54:54.335Z,5.96
2023-02-18T06:59:57.541Z,6.05
2023-02-18T07:05:00.550Z,6.07
2023-02-18T07:10:06.928Z,6.15
2023-02-18T07:15:11.270Z,6.37
2023-02-18T07:20:15.906Z,6.59
2023-02-18T07:25:19.921Z,6.78
2023-02-18T07:30:24.126Z,7.07
2023-02-18T07:35:27.295Z,7.77
2023-02-18T07:40:31.305Z,8.49
2023-02-18T07:45:34.435Z,9.32
2023-02-18T07:50:41.098Z,9.30
2023-02-18T07:55:50.036Z,8.73
2023-02-18T08:00:55.102Z,8.27
2023-02-18T08:05:59.021Z,8.00
2023-02-18T08:11:13.314Z,7.88
2023-02-18T08:16:23.382Z,7.91
2023-02-18T08:21:26.767Z,7.93
2023-02-18T08:26:30.195Z,7.98
2023-02-18T08:31:34.489Z,7.99
2023-02-18T08:36:37.828Z,7.86
2023-02-18T08:41:41.750Z,7.77
2023-02-18T08:46:45.014Z,7.74
2023-02-18T08:51:48.402Z,8.05
2023-02-18T08:56:56.063Z,9.14
2023-02-18T09:01:59.496Z,10.98
2023-02-18T09:07:03.627Z,11.25
2023-02-18T09:12:06.937Z,11.47
2023-02-18T09:17:10.968Z,11.52
2023-02-18T09:22:14.281Z,11.25
2023-02-18T09:27:17.482Z,11.87
2023-02-18T09:32:33.752Z,12.27
2023-02-18T09:37:38.742Z,12.08
2023-02-18T09:42:42.359Z,11.83
2023-02-18T09:47:46.634Z,11.90
2023-02-18T09:52:49.873Z,11.60
2023-02-18T09:57:57.621Z,11.18
2023-02-18T10:03:22.086Z,10.62
2023-02-18T10:08:29.325Z,9.99
2023-02-18T10:13:34.805Z,9.51
2023-02-18T10:18:43.333Z,9.37
2023-02-18T10:24:04.345Z,9.34
2023-02-18T10:29:16.359Z,8.96
2023-02-18T10:34:42.018Z,8.70
2023-02-18T10:40:15.001Z,8.58
2023-02-18T10:46:15.285Z,8.58
2023-02-18T10:51:23.273Z,8.61
2023-02-18T10:56:51.261Z,8.71
2023-02-18T11:02:18.519Z,8.64
2023-02-18T11:07:34.228Z,8.45
2023-02-18T11:13:06.000Z,8.13
2023-02-18T11:18:26.498Z,7.80
2023-02-18T11:23:29.823Z,7.70
2023-02-18T11:28:43.085Z,7.70
2023-02-18T11:33:52.085Z,7.72
2023-02-18T11:39:00.034Z,7.73
2023-02-18T11:44:07.853Z,7.69
2023-02-18T11:49:23.448Z,7.85
2023-02-18T11:54:32.437Z,8.15
2023-02-18T11:59:39.600Z,8.43
2023-02-18T12:05:13.156Z,8.64
2023-02-18T12:10:38.848Z,8.74
2023-02-18T12:16:08.522Z,8.67
2023-02-18T12:21:27.658Z,8.33
2023-02-18T12:27:06.609Z,7.96
2023-02-18T12:32:21.803Z,7.68
2023-02-18T12:37:43.229Z,7.58
2023-02-18T12:42:58.315Z,7.54
2023-02-18T12:48:11.044Z,7.49
2023-02-18T12:53:26.542Z,7.46
2023-02-18T12:58:57.815Z,7.41
2023-02-18T13:04:35.618Z,7.33
2023-02-18T13:09:58.493Z,7.26
2023-02-18T13:15:14.196Z,7.24
2023-02-18T13:21:05.864Z,7.24
2023-02-18T13:26:14.276Z,7.24
2023-02-18T13:31:20.773Z,7.25
2023-02-18T13:36:33.285Z,7.27
2023-02-18T13:41:39.515Z,7.28
2023-02-18T13:46:50.412Z,7.25
2023-02-18T13:51:57.541Z,7.22
2023-02-18T13:57:09.254Z,7.21
2023-02-18T14:02:23.567Z,7.22
2023-02-18T14:07:33.893Z,7.20
2023-02-18T14:12:38.999Z,7.16
2023-02-18T14:17:43.777Z,7.12
2023-02-18T14:22:49.616Z,7.08
2023-02-18T14:27:54.817Z,7.02
2023-02-18T14:33:00.702Z,6.95
2023-02-18T14:38:37.540Z,6.90
2023-02-18T14:44:04.953Z,6.83
2023-02-18T14:49:34.284Z,6.75
2023-02-18T14:54:40.361Z,6.68
2023-02-18T14:59:46.086Z,6.60
2023-02-18T15:04:50.907Z,6.52
2023-02-18T15:09:55.908Z,6.45
2023-02-18T15:15:07.626Z,6.38
2023-02-18T15:20:13.557Z,6.31
2023-02-18T15:25:17.971Z,6.25
2023-02-18T15:30:32.591Z,6.18
2023-02-18T15:35:35.708Z,6.11
2023-02-18T15:40:40.665Z,6.02
2023-02-18T15:45:46.734Z,5.93
2023-02-18T15:50:53.092Z,5.86
2023-02-18T15:55:57.043Z,5.77
2023-02-18T16:01:09.246Z,5.71
2023-02-18T16:06:17.280Z,5.64
2023-02-18T16:11:26.119Z,5.58
2023-02-18T16:16:33.915Z,5.51
2023-02-18T16:21:40.580Z,5.44
2023-02-18T16:26:46.342Z,5.34
2023-02-18T16:31:49.684Z,5.24
2023-02-18T16:37:11.768Z,5.15
2023-02-18T16:42:15.991Z,5.05
2023-02-18T16:47:20.886Z,4.98
2023-02-18T16:52:24.352Z,4.96
2023-02-18T16:57:27.754Z,4.94
2023-02-18T17:02:32.204Z,4.94
2023-02-18T17:07:37.258Z,4.94
2023-02-18T17:12:43.070Z,4.93
2023-02-18T17:17:46.336Z,4.91
2023-02-18T17:22:49.644Z,4.88
2023-02-18T17:27:52.544Z,4.86
2023-02-18T17:32:56.224Z,4.84
2023-02-18T17:38:00.294Z,4.82
2023-02-18T17:43:03.599Z,4.75
2023-02-18T17:48:06.913Z,4.68
2023-02-18T17:53:10.934Z,4.62
2023-02-18T17:58:15.860Z,4.57
2023-02-18T18:03:19.911Z,4.53
2023-02-18T18:08:24.456Z,4.47
2023-02-18T18:13:32.681Z,4.41
2023-02-18T18:18:37.211Z,4.36
2023-02-18T18:23:40.444Z,4.32
2023-02-18T18:28:43.625Z,4.24
2023-02-18T18:33:51.857Z,4.13
2023-02-18T18:38:55.473Z,4.03
2023-02-18T18:43:59.195Z,3.98
2023-02-18T18:49:02.401Z,3.95
2023-02-18T18:54:06.125Z,3.93
2023-02-18T18:59:10.321Z,3.91
2023-02-18T19:04:13.584Z,3.91
2023-02-18T19:09:18.102Z,3.89
2023-02-18T19:14:22.551Z,3.86
2023-02-18T19:19:26.057Z,3.78
2023-02-18T19:24:29.154Z,3.68
2023-02-18T19:29:32.170Z,3.62
2023-02-18T19:34:35.580Z,3.54
2023-02-18T19:39:38.514Z,3.44
2023-02-18T19:44:42.238Z,3.32
2023-02-18T19:49:45.819Z,3.23
2023-02-18T19:54:49.028Z,3.17
2023-02-18T19:59:52.338Z,3.11
2023-02-18T20:04:56.058Z,3.06
2023-02-18T20:09:59.773Z,3.00
2023-02-18T20:15:03.808Z,2.93
2023-02-18T20:20:10.187Z,2.86
2023-02-18T20:25:15.234Z,2.78
2023-02-18T20:30:20.981Z,2.72
2023-02-18T20:35:26.372Z,2.66
2023-02-18T20:40:31.009Z,2.62
2023-02-18T20:45:34.824Z,2.58
2023-02-18T20:50:38.442Z,2.54
2023-02-18T20:55:46.671Z,2.55
2023-02-18T21:01:02.024Z,2.61
2023-02-18T21:06:15.879Z,2.68
2023-02-18T21:11:25.829Z,2.74
2023-02-18T21:16:32.783Z,2.78
2023-02-18T21:21:36.502Z,2.78
2023-02-18T21:26:39.913Z,2.72
2023-02-18T21:31:44.071Z,2.62
2023-02-18T21:36:47.352Z,2.52
2023-02-18T21:41:50.778Z,2.44
2023-02-18T21:46:54.852Z,2.39
2023-02-18T21:51:59.436Z,2.39
2023-02-18T21:57:04.951Z,2.42
2023-02-18T22:02:15.005Z,2.47
2023-02-18T22:07:19.876Z,2.45
2023-02-18T22:12:24.564Z,2.38
2023-02-18T22:17:29.919Z,2.34
2023-02-18T22:22:33.431Z,2.26
2023-02-18T22:27:36.642Z,2.14
2023-02-18T22:32:39.537Z,1.99
2023-02-18T22:37:42.852Z,1.84
2023-02-18T22:42:45.848Z,1.72
2023-02-18T22:47:48.963Z,1.62
2023-02-18T22:52:52.060Z,1.53
2023-02-18T22:57:55.575Z,1.46
2023-02-18T23:02:58.839Z,1.42
2023-02-18T23:08:02.368Z,1.41
2023-02-18T23:13:05.914Z,1.37
2023-02-18T23:18:08.920Z,1.34
2023-02-18T23:23:12.135Z,1.30
2023-02-18T23:28:15.232Z,1.27
2023-02-18T23:33:18.339Z,1.26
2023-02-18T23:38:21.369Z,1.25
2023-02-18T23:43:24.451Z,1.25
2023-02-18T23:48:27.658Z,1.22
2023-02-18T23:53:32.854Z,1.19
2023-02-18T23:58:36.942Z,1.16
